createdAt,value
2023-03-06T00:01:08.551Z,15.44
2023-03-06T00:04:10.724Z,15.46
2023-03-06T00:07:12.929Z,15.45
2023-03-06T00:10:26.174Z,15.34
2023-03-06T00:13:30.276Z,15.31
2023-03-06T00:16:32.401Z,15.30
2023-03-06T00:19:34.912Z,15.26
2023-03-06T00:22:37.114Z,15.23
2023-03-06T00:25:43.126Z,15.28
2023-03-06T00:28:45.221Z,15.29
2023-03-06T00:31:48.100Z,15.20
2023-03-06T00:34:53.518Z,15.14
2023-03-06T00:37:55.651Z,15.20
2023-03-06T00:40:57.692Z,15.19
2023-03-06T00:43:59.828Z,15.18
2023-03-06T00:47:02.642Z,15.18
2023-03-06T00:50:06.482Z,15.11
2023-03-06T00:53:08.617Z,15.02
2023-03-06T00:56:10.777Z,15.07
2023-03-06T00:59:12.679Z,15.11
2023-03-06T01:02:14.839Z,15.02
2023-03-06T01:05:16.976Z,15.03
2023-03-06T01:08:18.926Z,15.02
2023-03-06T01:11:21.097Z,14.97
2023-03-06T01:14:23.401Z,14.92
2023-03-06T01:17:25.507Z,14.85
2023-03-06T01:20:28.244Z,14.68
2023-03-06T01:23:30.401Z,14.62
2023-03-06T01:26:33.624Z,14.54
2023-03-06T01:29:35.633Z,14.43
2023-03-06T01:32:37.861Z,14.37
2023-03-06T01:35:39.977Z,14.30
2023-03-06T01:38:42.026Z,14.17
2023-03-06T01:41:44.146Z,14.05
2023-03-06T01:45:24.624Z,14.27
2023-03-06T01:48:26.693Z,14.32
2023-03-06T01:51:37.329Z,14.31
2023-03-06T01:55:05.541Z,14.39
2023-03-06T01:58:12.322Z,14.28
2023-03-06T02:01:15.028Z,14.32
2023-03-06T02:04:18.196Z,14.20
2023-03-06T02:07:21.507Z,14.18
2023-03-06T02:10:24.328Z,13.93
2023-03-06T02:13:27.475Z,14.01
2023-03-06T02:16:32.003Z,14.02
2023-03-06T02:19:43.121Z,13.89
2023-03-06T02:23:07.157Z,13.92
2023-03-06T02:26:10.265Z,13.85
2023-03-06T02:29:12.523Z,13.89
2023-03-06T02:32:14.788Z,14.09
2023-03-06T02:35:23.031Z,14.26
2023-03-06T02:38:34.834Z,14.24
2023-03-06T02:41:36.988Z,14.27
2023-03-06T02:44:39.249Z,14.21
2023-03-06T02:47:41.297Z,14.24
2023-03-06T02:50:44.620Z,14.31
2023-03-06T02:53:46.756Z,14.06
2023-03-06T02:56:48.837Z,13.93
2023-03-06T02:59:51.000Z,13.84
2023-03-06T03:02:54.272Z,13.86
2023-03-06T03:05:56.355Z,13.84
2023-03-06T03:09:03.048Z,13.80
2023-03-06T03:12:07.673Z,13.80
2023-03-06T03:15:10.641Z,13.83
2023-03-06T03:18:13.285Z,13.89
2023-03-06T03:21:15.762Z,14.12
2023-03-06T03:24:19.091Z,14.23
2023-03-06T03:27:21.208Z,14.09
2023-03-06T03:30:23.533Z,14.13
2023-03-06T03:33:26.178Z,14.10
2023-03-06T03:36:28.855Z,13.99
2023-03-06T03:39:31.002Z,14.01
2023-03-06T03:42:33.222Z,13.73
2023-03-06T03:45:35.454Z,13.80
2023-03-06T03:48:38.279Z,13.73
2023-03-06T03:51:41.478Z,13.72
2023-03-06T03:54:43.804Z,13.77
2023-03-06T03:57:46.161Z,13.74
2023-03-06T04:00:49.256Z,13.81
2023-03-06T04:03:51.328Z,13.85
2023-03-06T04:06:53.724Z,14.01
2023-03-06T04:09:55.727Z,14.16
2023-03-06T04:12:58.051Z,14.09
2023-03-06T04:16:01.916Z,14.11
2023-03-06T04:19:06.484Z,14.01
2023-03-06T04:22:09.101Z,14.06
2023-03-06T04:25:14.030Z,14.02
2023-03-06T04:28:16.618Z,13.81
2023-03-06T04:31:19.045Z,13.67
2023-03-06T04:34:21.284Z,13.70
2023-03-06T04:37:26.178Z,13.73
2023-03-06T04:40:31.655Z,13.71
2023-03-06T04:43:34.954Z,13.68
2023-03-06T04:46:37.105Z,13.71
2023-03-06T04:49:39.122Z,13.62
2023-03-06T04:52:41.166Z,13.74
2023-03-06T04:55:43.202Z,13.75
2023-03-06T04:58:45.493Z,13.79
2023-03-06T05:01:47.940Z,13.79
2023-03-06T05:04:50.027Z,13.90
2023-03-06T05:07:52.799Z,14.07
2023-03-06T05:10:57.238Z,14.20
2023-03-06T05:13:59.350Z,14.10
2023-03-06T05:17:01.412Z,14.30
2023-03-06T05:20:06.329Z,14.62
2023-03-06T05:23:08.487Z,14.49
2023-03-06T05:26:12.677Z,14.34
2023-03-06T05:29:14.638Z,14.38
2023-03-06T05:32:17.223Z,14.47
2023-03-06T05:35:22.112Z,14.47
2023-03-06T05:38:24.383Z,14.55
2023-03-06T05:41:26.353Z,14.42
2023-03-06T05:44:36.111Z,14.51
2023-03-06T05:47:38.193Z,15.37
2023-03-06T05:50:40.433Z,15.95
2023-03-06T05:53:42.422Z,16.35
2023-03-06T05:56:44.458Z,16.26
2023-03-06T05:59:46.804Z,16.41
2023-03-06T06:02:49.074Z,16.38
2023-03-06T06:05:52.164Z,16.59
2023-03-06T06:08:54.261Z,16.70
2023-03-06T06:12:03.780Z,16.80
2023-03-06T06:15:06.901Z,16.85
2023-03-06T06:18:08.895Z,16.92
2023-03-06T06:21:13.379Z,17.00
2023-03-06T06:24:17.053Z,17.22
2023-03-06T06:27:19.060Z,17.32
2023-03-06T06:30:21.284Z,17.29
2023-03-06T06:33:23.926Z,17.29
2023-03-06T06:36:26.153Z,17.27
2023-03-06T06:39:29.108Z,17.24
2023-03-06T06:42:37.761Z,17.29
2023-03-06T06:45:44.203Z,17.12
2023-03-06T06:48:49.705Z,17.19
2023-03-06T06:51:51.889Z,17.16
2023-03-06T06:54:54.285Z,17.08
2023-03-06T06:57:56.609Z,17.06
2023-03-06T07:01:05.568Z,17.05
2023-03-06T07:04:07.716Z,17.03
2023-03-06T07:07:09.824Z,17.15
2023-03-06T07:10:14.957Z,17.39
2023-03-06T07:13:17.207Z,17.41
2023-03-06T07:16:20.385Z,17.62
2023-03-06T07:19:22.666Z,18.86
2023-03-06T07:22:24.753Z,19.21
2023-03-06T07:25:26.832Z,18.70
2023-03-06T07:28:28.990Z,18.46
2023-03-06T07:31:31.125Z,18.42
2023-03-06T07:34:33.334Z,18.29
2023-03-06T07:37:35.432Z,18.31
2023-03-06T07:40:39.017Z,18.24
2023-03-06T07:43:42.173Z,18.30
2023-03-06T07:46:44.154Z,18.19
2023-03-06T07:49:46.159Z,18.08
2023-03-06T07:52:50.311Z,18.01
2023-03-06T07:55:53.345Z,17.95
2023-03-06T07:58:57.044Z,17.99
2023-03-06T08:02:00.789Z,18.06
2023-03-06T08:05:03.064Z,18.18
2023-03-06T08:08:06.500Z,18.36
2023-03-06T08:11:09.811Z,20.86
2023-03-06T08:14:11.852Z,22.71
2023-03-06T08:17:14.040Z,22.99
2023-03-06T08:20:17.226Z,22.94
2023-03-06T08:23:19.115Z,22.81
2023-03-06T08:26:24.380Z,22.66
2023-03-06T08:29:27.203Z,22.71
2023-03-06T08:32:29.272Z,22.67
2023-03-06T08:35:31.415Z,22.61
2023-03-06T08:38:34.560Z,22.61
2023-03-06T08:41:37.299Z,22.65
2023-03-06T08:44:39.441Z,22.70
2023-03-06T08:47:41.544Z,22.69
2023-03-06T08:50:43.558Z,22.70
2023-03-06T08:53:46.510Z,22.71
2023-03-06T08:56:48.520Z,22.75
2023-03-06T08:59:50.545Z,22.64
2023-03-06T09:02:52.791Z,22.66
2023-03-06T09:05:54.900Z,22.84
2023-03-06T09:08:57.732Z,22.80
2023-03-06T09:11:59.714Z,22.76
2023-03-06T09:15:04.478Z,22.74
2023-03-06T09:18:06.808Z,22.69
2023-03-06T09:21:09.849Z,22.58
2023-03-06T09:24:12.082Z,22.50
2023-03-06T09:27:16.894Z,22.40
2023-03-06T09:30:19.263Z,22.37
2023-03-06T09:33:21.736Z,22.40
2023-03-06T09:36:24.126Z,22.46
2023-03-06T09:39:27.432Z,22.52
2023-03-06T09:42:29.654Z,20.82
2023-03-06T09:45:37.299Z,19.46
2023-03-06T09:49:10.572Z,18.66
2023-03-06T09:52:34.303Z,18.23
2023-03-06T09:55:38.891Z,18.00
2023-03-06T09:58:52.544Z,17.93
2023-03-06T10:02:16.274Z,17.89
2023-03-06T10:05:28.782Z,17.84
2023-03-06T10:08:42.961Z,17.73
2023-03-06T10:11:54.812Z,17.71
2023-03-06T10:15:17.116Z,17.70
2023-03-06T10:18:21.465Z,17.41
2023-03-06T10:21:44.887Z,17.35
2023-03-06T10:25:01.584Z,17.47
2023-03-06T10:28:16.538Z,17.46
2023-03-06T10:31:26.703Z,17.60
2023-03-06T10:34:39.317Z,17.53
2023-03-06T10:37:41.455Z,17.88
2023-03-06T10:40:56.911Z,17.99
2023-03-06T10:44:00.884Z,18.07
2023-03-06T10:47:30.150Z,17.90
2023-03-06T10:50:34.610Z,17.96
2023-03-06T10:53:36.694Z,17.88
2023-03-06T10:56:41.584Z,17.98
2023-03-06T11:00:02.001Z,17.86
2023-03-06T11:03:22.396Z,17.86
2023-03-06T11:06:36.002Z,17.79
2023-03-06T11:09:38.096Z,17.79
2023-03-06T11:12:42.527Z,17.75
2023-03-06T11:16:17.048Z,17.81
2023-03-06T11:19:28.942Z,17.73
2023-03-06T11:22:32.819Z,17.60
2023-03-06T11:25:41.882Z,17.39
2023-03-06T11:28:56.371Z,17.48
2023-03-06T11:32:24.825Z,17.57
2023-03-06T11:35:35.963Z,17.42
2023-03-06T11:38:49.212Z,17.28
2023-03-06T11:42:05.683Z,17.19
2023-03-06T11:45:19.199Z,17.23
2023-03-06T11:48:28.159Z,17.37
2023-03-06T11:51:35.327Z,17.87
2023-03-06T11:54:37.345Z,18.45
2023-03-06T11:58:04.058Z,18.95
2023-03-06T12:01:32.274Z,18.99
2023-03-06T12:04:43.048Z,19.13
2023-03-06T12:08:00.716Z,19.23
2023-03-06T12:11:24.567Z,19.38
2023-03-06T12:14:32.103Z,19.51
2023-03-06T12:18:09.397Z,19.60
2023-03-06T12:21:48.683Z,19.47
2023-03-06T12:25:28.512Z,19.24
2023-03-06T12:28:54.378Z,18.42
2023-03-06T12:32:17.884Z,17.72
2023-03-06T12:35:38.870Z,17.62
2023-03-06T12:39:01.714Z,17.61
2023-03-06T12:42:42.504Z,17.79
2023-03-06T12:45:45.484Z,17.93
2023-03-06T12:49:23.050Z,17.91
2023-03-06T12:52:34.398Z,17.73
2023-03-06T12:55:46.393Z,17.71
2023-03-06T12:58:54.345Z,17.81
2023-03-06T13:02:11.838Z,17.80
2023-03-06T13:05:26.121Z,17.75
2023-03-06T13:08:46.645Z,17.53
2023-03-06T13:12:23.514Z,17.44
2023-03-06T13:15:39.567Z,17.51
2023-03-06T13:18:41.994Z,17.68
2023-03-06T13:21:55.940Z,17.67
2023-03-06T13:25:19.635Z,17.74
2023-03-06T13:28:46.583Z,17.70
2023-03-06T13:31:58.200Z,17.75
2023-03-06T13:35:01.680Z,17.71
2023-03-06T13:38:06.174Z,17.70
2023-03-06T13:41:23.594Z,17.75
2023-03-06T13:44:25.638Z,17.61
2023-03-06T13:47:39.175Z,17.62
2023-03-06T13:50:51.727Z,17.67
2023-03-06T13:54:11.304Z,17.66
2023-03-06T13:57:23.815Z,17.98
2023-03-06T14:00:50.967Z,18.22
2023-03-06T14:04:14.736Z,18.53
2023-03-06T14:07:40.218Z,22.00
2023-03-06T14:10:44.059Z,25.52
2023-03-06T14:13:51.810Z,26.62
2023-03-06T14:16:54.355Z,27.43
2023-03-06T14:20:00.939Z,26.49
2023-03-06T14:23:21.424Z,24.84
2023-03-06T14:26:26.061Z,23.34
2023-03-06T14:29:30.693Z,21.20
2023-03-06T14:32:33.041Z,19.79
2023-03-06T14:35:35.213Z,19.11
2023-03-06T14:38:44.314Z,18.75
2023-03-06T14:41:46.460Z,18.64
2023-03-06T14:45:01.834Z,18.41
2023-03-06T14:48:07.374Z,18.17
2023-03-06T14:51:22.107Z,18.04
2023-03-06T14:54:39.573Z,17.85
2023-03-06T14:57:41.816Z,17.80
2023-03-06T15:00:46.558Z,17.67
2023-03-06T15:03:51.452Z,17.71
2023-03-06T15:06:55.408Z,17.69
2023-03-06T15:09:58.426Z,17.56
2023-03-06T15:13:09.219Z,17.58
2023-03-06T15:16:13.973Z,17.59
2023-03-06T15:19:21.920Z,17.57
2023-03-06T15:22:29.771Z,17.59
2023-03-06T15:25:32.464Z,17.46
2023-03-06T15:28:39.663Z,17.55
2023-03-06T15:31:44.202Z,17.51
2023-03-06T15:34:47.157Z,17.39
2023-03-06T15:37:49.173Z,17.29
2023-03-06T15:40:56.573Z,17.27
2023-03-06T15:44:00.363Z,17.10
2023-03-06T15:47:08.767Z,17.05
2023-03-06T15:50:19.148Z,17.10
2023-03-06T15:53:21.325Z,17.07
2023-03-06T15:56:29.822Z,17.06
2023-03-06T15:59:36.626Z,17.07
2023-03-06T16:02:41.177Z,16.91
2023-03-06T16:05:43.302Z,17.50
2023-03-06T16:08:45.532Z,18.21
2023-03-06T16:11:47.572Z,18.56
2023-03-06T16:14:49.896Z,18.75
2023-03-06T16:17:51.856Z,18.90
2023-03-06T16:20:54.044Z,18.96
2023-03-06T16:23:56.185Z,18.43
2023-03-06T16:27:00.642Z,17.51
2023-03-06T16:30:03.830Z,16.74
2023-03-06T16:33:05.983Z,16.32
2023-03-06T16:36:17.554Z,16.17
2023-03-06T16:39:22.852Z,15.93
2023-03-06T16:42:25.159Z,15.85
2023-03-06T16:45:27.414Z,15.71
2023-03-06T16:48:29.583Z,15.62
2023-03-06T16:51:32.041Z,15.68
2023-03-06T16:54:34.284Z,15.77
2023-03-06T16:57:36.259Z,15.62
2023-03-06T17:00:38.365Z,15.71
2023-03-06T17:03:40.558Z,15.71
2023-03-06T17:06:43.289Z,15.69
2023-03-06T17:09:45.459Z,15.82
2023-03-06T17:12:47.455Z,16.15
2023-03-06T17:15:56.570Z,16.48
2023-03-06T17:19:00.098Z,16.58
2023-03-06T17:22:02.148Z,16.99
2023-03-06T17:25:06.996Z,17.11
2023-03-06T17:28:09.131Z,17.25
2023-03-06T17:31:23.019Z,17.32
2023-03-06T17:34:25.022Z,17.41
2023-03-06T17:37:27.310Z,17.40
2023-03-06T17:40:29.450Z,17.34
2023-03-06T17:43:34.279Z,17.33
2023-03-06T17:46:36.515Z,17.16
2023-03-06T17:49:38.667Z,16.82
2023-03-06T17:52:40.704Z,16.84
2023-03-06T17:55:42.765Z,16.82
2023-03-06T17:58:45.184Z,17.13
2023-03-06T18:01:47.376Z,17.56
2023-03-06T18:04:49.421Z,17.70
2023-03-06T18:07:51.425Z,17.84
2023-03-06T18:10:59.705Z,17.99
2023-03-06T18:14:03.215Z,17.99
2023-03-06T18:17:06.341Z,17.99
2023-03-06T18:20:09.410Z,18.03
2023-03-06T18:23:11.499Z,17.94
2023-03-06T18:26:25.325Z,17.94
2023-03-06T18:29:27.574Z,17.86
2023-03-06T18:32:29.821Z,17.88
2023-03-06T18:35:33.795Z,17.69
2023-03-06T18:38:37.050Z,17.68
2023-03-06T18:41:39.299Z,17.54
2023-03-06T18:44:41.631Z,17.48
2023-03-06T18:47:43.661Z,17.41
2023-03-06T18:50:45.742Z,17.29
2023-03-06T18:53:47.998Z,17.26
2023-03-06T18:56:49.953Z,17.19
2023-03-06T18:59:52.102Z,17.26
2023-03-06T19:02:54.093Z,17.18
2023-03-06T19:05:56.247Z,17.19
2023-03-06T19:09:02.417Z,17.04
2023-03-06T19:12:04.904Z,16.82
2023-03-06T19:15:07.429Z,16.92
2023-03-06T19:18:09.362Z,16.71
2023-03-06T19:21:20.142Z,16.50
2023-03-06T19:24:22.205Z,16.28
2023-03-06T19:27:24.290Z,16.19
2023-03-06T19:30:26.747Z,16.17
2023-03-06T19:33:28.715Z,16.05
2023-03-06T19:36:33.921Z,16.07
2023-03-06T19:39:36.052Z,15.93
2023-03-06T19:42:38.139Z,15.88
2023-03-06T19:45:44.271Z,15.70
2023-03-06T19:48:46.441Z,15.48
2023-03-06T19:51:48.490Z,15.52
2023-03-06T19:54:51.342Z,15.65
2023-03-06T19:57:54.025Z,15.65
2023-03-06T20:00:58.611Z,15.39
2023-03-06T20:04:00.737Z,15.79
2023-03-06T20:07:04.927Z,15.79
2023-03-06T20:10:08.204Z,15.97
2023-03-06T20:13:12.576Z,15.95
2023-03-06T20:16:17.076Z,16.05
2023-03-06T20:19:21.934Z,16.18
2023-03-06T20:22:24.016Z,16.08
2023-03-06T20:29:44.875Z,15.98
2023-03-06T20:32:46.899Z,15.87
2023-03-06T20:35:49.152Z,15.78
2023-03-06T20:38:51.461Z,15.57
2023-03-06T20:41:54.087Z,15.53
2023-03-06T20:44:56.194Z,15.46
2023-03-06T20:47:58.251Z,15.38
2023-03-06T20:51:26.149Z,15.28
2023-03-06T20:54:29.094Z,15.09
2023-03-06T20:57:34.587Z,15.08
2023-03-06T21:00:36.575Z,14.94
2023-03-06T21:03:39.799Z,15.00
2023-03-06T21:06:47.257Z,15.02
2023-03-06T21:09:49.916Z,15.13
2023-03-06T21:12:52.041Z,15.12
2023-03-06T21:15:54.480Z,15.28
2023-03-06T21:18:58.636Z,15.25
2023-03-06T21:22:00.637Z,15.20
2023-03-06T21:25:02.765Z,15.26
2023-03-06T21:28:05.358Z,15.24
2023-03-06T21:31:09.006Z,15.12
2023-03-06T21:34:11.798Z,15.18
2023-03-06T21:37:13.959Z,15.03
2023-03-06T21:40:16.236Z,15.00
2023-03-06T21:43:20.297Z,14.97
2023-03-06T21:46:27.693Z,14.94
2023-03-06T21:49:29.954Z,14.77
2023-03-06T21:52:32.078Z,14.78
2023-03-06T21:55:34.359Z,14.70
2023-03-06T21:58:38.071Z,14.69
2023-03-06T22:01:42.675Z,14.70
2023-03-06T22:04:44.963Z,14.61
2023-03-06T22:07:47.031Z,14.65
2023-03-06T22:10:49.291Z,14.66
2023-03-06T22:13:53.301Z,14.50
2023-03-06T22:16:56.851Z,14.43
2023-03-06T22:19:59.158Z,14.47
2023-03-06T22:23:01.249Z,14.31
2023-03-06T22:26:12.532Z,14.31
2023-03-06T22:29:14.647Z,14.20
2023-03-06T22:32:16.764Z,14.30
2023-03-06T22:35:18.864Z,14.17
2023-03-06T22:38:20.889Z,14.14
2023-03-06T22:41:26.376Z,14.06
2023-03-06T22:44:28.403Z,14.10
2023-03-06T22:47:30.391Z,14.05
2023-03-06T22:50:33.653Z,13.84
2023-03-06T22:53:36.372Z,13.70
2023-03-06T22:56:38.518Z,13.75
2023-03-06T22:59:40.696Z,13.76
2023-03-06T23:02:44.034Z,13.79
2023-03-06T23:05:46.007Z,13.83
2023-03-06T23:08:59.664Z,13.79
2023-03-06T23:12:01.954Z,13.82
2023-03-06T23:15:23.051Z,13.87
2023-03-06T23:18:43.835Z,13.78
2023-03-06T23:22:04.096Z,13.68
2023-03-06T23:25:24.655Z,13.64
2023-03-06T23:28:27.686Z,13.66
2023-03-06T23:31:31.082Z,13.74
2023-03-06T23:34:33.043Z,13.75
2023-03-06T23:37:35.242Z,13.91
2023-03-06T23:40:38.458Z,13.77
2023-03-06T23:43:40.529Z,13.66
2023-03-06T23:46:42.855Z,13.62
2023-03-06T23:49:44.971Z,13.73
2023-03-06T23:52:47.276Z,13.80
2023-03-06T23:55:50.483Z,13.83
2023-03-06T23:58:52.607Z,13.65
